createdAt,value
2023-03-24T00:01:40.872Z,23.70
2023-03-24T00:04:10.262Z,24.20
2023-03-24T00:06:39.782Z,23.80
2023-03-24T00:09:08.926Z,24.40
2023-03-24T00:11:38.985Z,23.40
2023-03-24T00:14:11.665Z,22.50
2023-03-24T00:16:42.197Z,22.90
2023-03-24T00:19:14.282Z,24.50
2023-03-24T00:21:44.902Z,23.30
2023-03-24T00:24:14.595Z,24.00
2023-03-24T00:26:43.786Z,23.10
2023-03-24T00:29:13.160Z,23.50
2023-03-24T00:31:42.851Z,22.60
2023-03-24T00:34:13.124Z,22.90
2023-03-24T00:36:42.280Z,23.40
2023-03-24T00:39:11.674Z,24.00
2023-03-24T00:41:44.681Z,23.70
2023-03-24T00:44:17.464Z,23.50
2023-03-24T00:46:55.536Z,23.30
2023-03-24T00:49:41.922Z,23.00
2023-03-24T00:52:12.696Z,23.60
2023-03-24T00:54:42.846Z,24.00
2023-03-24T00:57:14.188Z,23.60
2023-03-24T00:59:48.799Z,24.10
2023-03-24T01:02:21.720Z,22.90
2023-03-24T01:04:55.835Z,22.80
2023-03-24T01:07:27.691Z,22.50
2023-03-24T01:09:58.123Z,22.30
2023-03-24T01:12:31.458Z,22.50
2023-03-24T01:15:05.158Z,21.70
2023-03-24T01:17:34.556Z,23.00
2023-03-24T01:20:07.503Z,22.40
2023-03-24T01:22:39.382Z,23.30
2023-03-24T01:25:11.861Z,21.80
2023-03-24T01:27:41.198Z,22.80
2023-03-24T01:30:14.293Z,22.90
2023-03-24T01:32:47.064Z,23.50
2023-03-24T01:35:16.850Z,23.50
2023-03-24T01:37:45.996Z,23.30
2023-03-24T01:40:19.447Z,22.50
2023-03-24T01:42:48.950Z,22.80
2023-03-24T01:45:58.264Z,21.80
2023-03-24T01:48:33.927Z,22.60
2023-03-24T01:51:07.354Z,21.50
2023-03-24T01:53:42.414Z,22.10
2023-03-24T01:56:12.288Z,22.10
2023-03-24T01:58:48.342Z,22.00
2023-03-24T02:01:19.014Z,22.70
2023-03-24T02:03:49.125Z,22.40
2023-03-24T02:06:19.673Z,22.30
2023-03-24T02:08:54.498Z,20.90
2023-03-24T02:11:30.678Z,20.80
2023-03-24T02:33:28.333Z,22.50
2023-03-24T02:36:28.041Z,21.80
2023-03-24T02:39:32.704Z,22.80
2023-03-24T02:42:12.012Z,23.30
2023-03-24T02:44:48.146Z,23.90
2023-03-24T02:47:24.373Z,21.60
2023-03-24T02:50:03.988Z,20.40
2023-03-24T02:55:12.472Z,22.10
2023-03-24T02:57:48.826Z,23.70
2023-03-24T03:00:26.502Z,22.70
2023-03-24T03:03:02.311Z,21.60
2023-03-24T03:05:37.178Z,21.80
2023-03-24T03:08:09.996Z,22.50
2023-03-24T03:10:43.257Z,22.60
2023-03-24T03:13:21.208Z,22.20
2023-03-24T03:15:55.063Z,21.30
2023-03-24T03:18:32.931Z,21.90
2023-03-24T03:21:06.924Z,21.30
2023-03-24T03:23:38.646Z,22.00
2023-03-24T03:26:13.083Z,20.50
2023-03-24T03:28:49.300Z,21.20
2023-03-24T03:31:23.847Z,21.20
2023-03-24T03:33:58.735Z,21.70
2023-03-24T03:36:33.429Z,20.40
2023-03-24T03:39:10.585Z,19.90
2023-03-24T03:41:40.421Z,21.50
2023-03-24T03:44:10.152Z,21.50
2023-03-24T03:46:39.569Z,21.40
2023-03-24T03:49:09.721Z,21.40
2023-03-24T03:51:39.368Z,20.10
2023-03-24T03:54:11.620Z,20.80
2023-03-24T03:56:41.990Z,20.60
2023-03-24T03:59:26.963Z,20.80
2023-03-24T04:01:57.852Z,21.30
2023-03-24T04:04:59.751Z,19.00
2023-03-24T04:07:42.241Z,19.50
2023-03-24T04:10:21.240Z,20.50
2023-03-24T04:13:07.587Z,21.20
2023-03-24T04:15:42.948Z,20.60
2023-03-24T04:18:31.788Z,21.00
2023-03-24T04:21:27.743Z,19.40
2023-03-24T04:24:13.696Z,22.20
2023-03-24T04:26:53.948Z,23.20
2023-03-24T04:29:36.500Z,22.00
2023-03-24T04:32:18.987Z,21.30
2023-03-24T04:34:53.771Z,21.80
2023-03-24T04:37:26.744Z,23.00
2023-03-24T04:39:59.590Z,23.80
2023-03-24T04:42:35.496Z,23.20
2023-03-24T04:45:05.981Z,22.80
2023-03-24T04:47:49.388Z,21.50
2023-03-24T04:50:30.306Z,24.20
2023-03-24T04:53:01.320Z,22.00
2023-03-24T04:55:50.922Z,22.30
2023-03-24T04:58:31.780Z,22.50
2023-03-24T05:01:02.749Z,22.50
2023-03-24T05:03:31.943Z,22.90
2023-03-24T05:06:01.092Z,22.80
2023-03-24T05:08:30.468Z,23.30
2023-03-24T05:11:01.095Z,22.70
2023-03-24T05:13:32.044Z,21.70
2023-03-24T05:16:01.525Z,23.30
2023-03-24T05:18:30.889Z,21.20
2023-03-24T05:21:00.636Z,23.20
2023-03-24T05:23:30.213Z,21.90
2023-03-24T05:26:00.185Z,22.10
2023-03-24T05:28:30.551Z,22.60
2023-03-24T05:31:01.034Z,21.00
2023-03-24T05:33:30.897Z,22.70
2023-03-24T05:36:00.430Z,21.50
2023-03-24T05:38:37.604Z,21.10
2023-03-24T05:41:08.879Z,21.10
2023-03-24T05:43:38.084Z,21.90
2023-03-24T05:46:08.325Z,21.60
2023-03-24T05:48:37.539Z,21.70
2023-03-24T05:51:07.992Z,21.50
2023-03-24T05:53:40.213Z,21.30
2023-03-24T05:56:15.030Z,21.10
2023-03-24T05:58:45.496Z,20.30
2023-03-24T06:01:18.028Z,21.10
2023-03-24T06:03:48.985Z,20.40
2023-03-24T06:06:18.680Z,20.80
2023-03-24T06:08:47.933Z,21.20
2023-03-24T06:11:17.066Z,20.60
2023-03-24T06:13:46.585Z,21.10
2023-03-24T06:16:18.358Z,20.10
2023-03-24T06:18:51.944Z,19.70
2023-03-24T06:21:21.833Z,20.60
2023-03-24T06:23:51.686Z,20.00
2023-03-24T06:26:20.753Z,21.40
2023-03-24T06:28:51.517Z,19.60
2023-03-24T06:31:21.782Z,19.80
2023-03-24T06:33:52.526Z,20.10
2023-03-24T06:36:23.124Z,19.70
2023-03-24T06:38:53.865Z,20.70
2023-03-24T06:41:35.796Z,21.20
2023-03-24T06:44:05.079Z,19.70
2023-03-24T06:46:34.439Z,20.10
2023-03-24T06:49:04.369Z,18.70
2023-03-24T06:51:33.736Z,18.60
2023-03-24T06:54:03.605Z,20.20
2023-03-24T06:56:34.422Z,18.70
2023-03-24T06:59:04.010Z,19.40
2023-03-24T07:01:34.581Z,19.40
2023-03-24T07:04:04.125Z,17.90
2023-03-24T07:06:40.420Z,18.10
2023-03-24T07:09:13.292Z,18.90
2023-03-24T07:11:45.973Z,17.80
2023-03-24T07:14:15.471Z,19.90
2023-03-24T07:16:44.817Z,20.10
2023-03-24T07:19:13.869Z,20.20
2023-03-24T07:21:43.749Z,19.30
2023-03-24T07:24:12.950Z,19.40
2023-03-24T07:26:42.093Z,19.50
2023-03-24T07:29:13.344Z,18.70
2023-03-24T07:31:42.626Z,17.70
2023-03-24T07:34:11.729Z,17.80
2023-03-24T07:36:41.029Z,19.60
2023-03-24T07:39:10.243Z,18.00
2023-03-24T07:41:39.416Z,19.60
2023-03-24T07:44:09.223Z,19.50
2023-03-24T07:46:38.556Z,18.80
2023-03-24T07:49:18.221Z,18.80
2023-03-24T07:51:48.728Z,19.60
2023-03-24T07:54:18.214Z,19.20
2023-03-24T07:56:47.348Z,19.60
2023-03-24T07:59:17.340Z,19.30
2023-03-24T08:01:51.317Z,18.20
2023-03-24T08:04:23.918Z,19.30
2023-03-24T08:06:53.520Z,19.00
2023-03-24T08:09:23.649Z,19.60
2023-03-24T08:11:52.995Z,19.30
2023-03-24T08:14:22.967Z,19.60
2023-03-24T08:16:53.233Z,19.50
2023-03-24T08:19:22.775Z,19.00
2023-03-24T08:21:51.914Z,17.40
2023-03-24T08:24:20.873Z,19.60
2023-03-24T08:26:50.198Z,19.80
2023-03-24T08:29:19.180Z,17.80
2023-03-24T08:31:48.380Z,20.50
2023-03-24T08:34:18.678Z,20.30
2023-03-24T08:36:48.469Z,17.70
2023-03-24T08:39:17.687Z,19.40
2023-03-24T08:41:49.593Z,18.70
2023-03-24T08:44:18.856Z,18.70
2023-03-24T08:46:48.272Z,19.00
2023-03-24T08:49:18.692Z,20.40
2023-03-24T08:51:47.981Z,20.00
2023-03-24T08:54:17.302Z,19.90
2023-03-24T08:56:46.936Z,19.10
2023-03-24T08:59:16.367Z,19.10
2023-03-24T09:01:45.535Z,18.60
2023-03-24T09:04:15.143Z,18.50
2023-03-24T09:06:44.426Z,16.50
2023-03-24T09:09:13.733Z,17.60
2023-03-24T09:11:42.971Z,18.00
2023-03-24T09:14:12.195Z,16.30
2023-03-24T09:16:43.420Z,17.40
2023-03-24T09:19:12.897Z,17.00
2023-03-24T09:21:42.588Z,17.00
2023-03-24T09:24:11.719Z,16.50
2023-03-24T09:26:41.206Z,16.50
2023-03-24T09:29:10.422Z,17.50
2023-03-24T09:31:39.599Z,15.70
2023-03-24T09:34:09.380Z,17.90
2023-03-24T09:36:38.400Z,16.30
2023-03-24T09:39:08.243Z,16.20
2023-03-24T09:41:37.931Z,16.20
2023-03-24T09:44:14.062Z,16.40
2023-03-24T09:46:47.712Z,16.00
2023-03-24T09:49:24.800Z,16.30
2023-03-24T09:51:57.187Z,15.40
2023-03-24T09:54:37.676Z,14.40
2023-03-24T09:57:16.643Z,13.90
2023-03-24T09:59:45.801Z,14.50
2023-03-24T10:02:18.206Z,14.00
2023-03-24T10:04:47.908Z,13.90
2023-03-24T10:07:25.150Z,14.70
2023-03-24T10:09:59.473Z,13.40
2023-03-24T10:12:36.886Z,12.70
2023-03-24T10:15:24.343Z,13.40
2023-03-24T10:18:19.439Z,12.10
2023-03-24T10:20:54.745Z,11.70
2023-03-24T10:23:33.112Z,12.70
2023-03-24T10:26:09.388Z,11.00
2023-03-24T10:28:45.037Z,11.00
2023-03-24T10:31:17.626Z,10.20
2023-03-24T10:33:49.227Z,10.60
2023-03-24T10:36:20.943Z,10.30
2023-03-24T10:38:50.562Z,11.20
2023-03-24T10:41:21.965Z,10.90
2023-03-24T10:43:52.716Z,10.20
2023-03-24T10:46:25.614Z,10.10
2023-03-24T10:49:08.143Z,9.10
2023-03-24T10:51:37.911Z,9.30
2023-03-24T10:54:16.801Z,10.50
2023-03-24T10:56:48.287Z,10.60
2023-03-24T10:59:22.814Z,9.50
2023-03-24T11:01:56.476Z,9.50
2023-03-24T11:04:26.660Z,8.90
2023-03-24T11:07:15.379Z,8.80
2023-03-24T11:09:46.478Z,10.00
2023-03-24T11:12:23.572Z,9.10
2023-03-24T11:15:10.458Z,8.70
2023-03-24T11:17:48.527Z,8.90
2023-03-24T11:20:37.655Z,9.20
2023-03-24T11:23:11.387Z,9.50
2023-03-24T11:25:42.343Z,7.70
2023-03-24T11:28:18.221Z,8.40
2023-03-24T11:30:51.143Z,7.70
2023-03-24T11:33:35.541Z,8.80
2023-03-24T11:36:31.019Z,8.60
2023-03-24T11:39:04.337Z,9.60
2023-03-24T11:41:42.107Z,9.40
2023-03-24T11:44:23.080Z,9.50
2023-03-24T11:46:57.135Z,8.80
2023-03-24T11:49:34.833Z,9.30
2023-03-24T11:52:09.916Z,9.40
2023-03-24T11:54:39.984Z,8.20
2023-03-24T11:57:17.243Z,7.90
2023-03-24T11:59:57.401Z,6.90
2023-03-24T12:02:43.974Z,7.70
2023-03-24T12:05:26.749Z,6.90
2023-03-24T12:08:18.205Z,7.00
2023-03-24T12:11:01.006Z,6.90
2023-03-24T12:13:37.432Z,7.10
2023-03-24T12:16:32.645Z,6.60
2023-03-24T12:19:36.729Z,7.20
2023-03-24T12:22:20.608Z,7.10
2023-03-24T12:25:18.575Z,9.70
2023-03-24T12:27:56.472Z,6.70
2023-03-24T12:30:31.604Z,6.60
2023-03-24T12:33:14.972Z,6.40
2023-03-24T12:35:56.536Z,7.40
2023-03-24T12:38:41.113Z,6.90
2023-03-24T12:41:31.173Z,5.70
2023-03-24T12:44:17.671Z,5.20
2023-03-24T12:46:54.172Z,5.30
2023-03-24T12:49:46.901Z,5.80
2023-03-24T12:52:32.528Z,5.30
2023-03-24T12:55:08.880Z,5.60
2023-03-24T12:57:42.812Z,6.00
2023-03-24T13:00:18.544Z,5.20
2023-03-24T13:02:52.209Z,5.00
2023-03-24T13:05:27.036Z,5.20
2023-03-24T13:08:02.650Z,4.60
2023-03-24T13:10:39.855Z,5.30
2023-03-24T13:13:17.258Z,4.70
2023-03-24T13:15:49.909Z,5.10
2023-03-24T13:18:28.338Z,4.80
2023-03-24T13:21:03.409Z,5.30
2023-03-24T13:23:40.754Z,5.40
2023-03-24T13:26:18.862Z,4.80
2023-03-24T13:29:01.080Z,4.60
2023-03-24T13:31:36.625Z,4.90
2023-03-24T13:34:13.162Z,5.00
2023-03-24T13:36:49.001Z,5.00
2023-03-24T13:39:21.567Z,4.50
2023-03-24T13:41:53.552Z,4.70
2023-03-24T13:44:28.455Z,5.50
2023-03-24T13:47:16.172Z,4.90
2023-03-24T13:49:54.002Z,5.20
2023-03-24T13:52:31.590Z,5.20
2023-03-24T13:55:08.518Z,4.90
2023-03-24T13:57:41.902Z,5.00
2023-03-24T14:00:22.731Z,4.80
2023-03-24T14:02:54.666Z,5.20
2023-03-24T14:06:02.229Z,5.00
2023-03-24T14:08:55.920Z,4.40
2023-03-24T14:12:08.492Z,4.40
2023-03-24T14:15:12.748Z,4.50
2023-03-24T14:17:45.484Z,4.80
2023-03-24T14:20:32.542Z,4.60
2023-03-24T14:23:04.166Z,4.70
2023-03-24T14:25:36.261Z,4.90
2023-03-24T14:28:22.971Z,4.40
2023-03-24T14:31:09.392Z,5.00
2023-03-24T14:33:39.288Z,4.50
2023-03-24T14:36:12.460Z,4.50
2023-03-24T14:38:44.747Z,4.40
2023-03-24T14:41:23.252Z,4.60
2023-03-24T14:43:58.983Z,4.40
2023-03-24T14:46:41.373Z,5.10
2023-03-24T14:49:24.561Z,4.80
2023-03-24T14:52:02.027Z,4.80
2023-03-24T14:54:38.034Z,4.40
2023-03-24T14:57:08.934Z,4.60
2023-03-24T14:59:47.038Z,4.40
2023-03-24T15:02:28.516Z,4.50
2023-03-24T15:05:22.883Z,4.10
2023-03-24T15:08:15.352Z,4.00
2023-03-24T15:10:49.857Z,4.10
2023-03-24T15:13:32.225Z,4.30
2023-03-24T15:16:05.202Z,3.80
2023-03-24T15:18:34.845Z,4.20
2023-03-24T15:21:15.848Z,4.30
2023-03-24T15:23:49.017Z,4.00
2023-03-24T15:26:22.226Z,4.10
2023-03-24T15:28:59.926Z,3.80
2023-03-24T15:31:31.652Z,4.20
2023-03-24T15:34:08.406Z,4.50
2023-03-24T15:36:45.080Z,4.30
2023-03-24T15:39:24.816Z,4.60
2023-03-24T15:41:56.321Z,4.70
2023-03-24T15:44:28.426Z,4.90
2023-03-24T15:46:59.676Z,5.40
2023-03-24T15:49:34.856Z,5.00
2023-03-24T15:52:22.510Z,4.70
2023-03-24T15:54:54.526Z,4.80
2023-03-24T15:57:25.068Z,6.10
2023-03-24T16:00:12.567Z,5.80
2023-03-24T16:02:51.802Z,4.70
2023-03-24T16:05:23.822Z,4.80
2023-03-24T16:08:03.177Z,4.90
2023-03-24T16:10:39.420Z,4.80
2023-03-24T16:13:20.410Z,4.80
2023-03-24T16:15:58.417Z,4.80
2023-03-24T16:18:33.239Z,5.10
2023-03-24T16:21:09.992Z,4.90
2023-03-24T16:23:41.795Z,5.30
2023-03-24T16:26:13.857Z,4.70
2023-03-24T16:28:43.256Z,5.10
2023-03-24T16:31:25.458Z,4.80
2023-03-24T16:33:59.849Z,4.70
2023-03-24T16:36:29.430Z,4.80
2023-03-24T16:39:01.859Z,5.20
2023-03-24T16:41:35.120Z,4.80
2023-03-24T16:44:05.207Z,4.80
2023-03-24T16:46:36.460Z,6.10
2023-03-24T16:49:08.220Z,5.20
2023-03-24T16:51:37.541Z,5.80
2023-03-24T16:54:08.700Z,5.70
2023-03-24T16:56:41.864Z,5.20
2023-03-24T16:59:14.262Z,5.40
2023-03-24T17:01:45.343Z,5.00
2023-03-24T17:04:17.379Z,5.20
2023-03-24T17:06:48.564Z,5.20
2023-03-24T17:09:18.476Z,5.00
2023-03-24T17:11:51.355Z,5.30
2023-03-24T17:14:21.121Z,4.50
2023-03-24T17:16:52.113Z,5.10
2023-03-24T17:19:23.446Z,5.40
2023-03-24T17:21:58.188Z,6.80
2023-03-24T17:24:28.158Z,6.80
2023-03-24T17:26:57.431Z,5.70
2023-03-24T17:29:26.852Z,5.50
2023-03-24T17:31:56.605Z,5.40
2023-03-24T17:34:25.636Z,6.00
2023-03-24T17:36:55.175Z,6.90
2023-03-24T17:39:24.818Z,5.90
2023-03-24T17:41:57.146Z,6.60
2023-03-24T17:44:26.986Z,5.70
2023-03-24T17:46:56.713Z,7.30
2023-03-24T17:49:28.130Z,6.80
2023-03-24T17:51:58.104Z,7.60
2023-03-24T17:54:27.542Z,15.50
2023-03-24T17:57:11.061Z,13.30
2023-03-24T17:59:47.456Z,8.90
2023-03-24T18:02:20.804Z,7.70
2023-03-24T18:04:58.650Z,7.70
2023-03-24T18:07:28.406Z,7.50
2023-03-24T18:09:57.819Z,7.70
2023-03-24T18:12:27.962Z,7.20
2023-03-24T18:14:57.177Z,7.70
2023-03-24T18:17:26.904Z,8.20
2023-03-24T18:19:59.030Z,8.00
2023-03-24T18:22:28.609Z,7.60
2023-03-24T18:24:57.836Z,7.90
2023-03-24T18:27:27.614Z,8.10
2023-03-24T18:29:57.169Z,9.50
2023-03-24T18:32:28.354Z,11.10
2023-03-24T18:35:00.268Z,10.60
2023-03-24T18:37:34.704Z,9.70
2023-03-24T18:40:07.911Z,8.70
2023-03-24T18:42:38.510Z,8.90
2023-03-24T18:45:16.715Z,8.70
2023-03-24T18:47:47.221Z,8.10
2023-03-24T18:50:17.765Z,9.50
2023-03-24T18:52:49.035Z,11.50
2023-03-24T18:55:20.169Z,11.30
2023-03-24T18:57:50.316Z,10.00
2023-03-24T19:00:21.637Z,9.50
2023-03-24T19:02:51.840Z,9.10
2023-03-24T19:05:21.744Z,9.00
2023-03-24T19:07:51.763Z,8.90
2023-03-24T19:10:21.907Z,9.40
2023-03-24T19:12:51.374Z,9.90
2023-03-24T19:15:21.288Z,12.10
2023-03-24T19:17:50.877Z,9.80
2023-03-24T19:20:20.816Z,8.80
2023-03-24T19:22:50.225Z,9.30
2023-03-24T19:25:19.744Z,9.00
2023-03-24T19:27:49.895Z,10.30
2023-03-24T19:30:19.885Z,11.60
2023-03-24T19:32:49.918Z,13.00
2023-03-24T19:35:19.418Z,11.40
2023-03-24T19:37:49.584Z,9.80
2023-03-24T19:40:19.044Z,9.50
2023-03-24T19:42:48.371Z,9.70
2023-03-24T19:45:19.259Z,10.80
2023-03-24T19:47:48.765Z,9.90
2023-03-24T19:50:18.884Z,11.10
2023-03-24T19:52:48.005Z,10.60
2023-03-24T19:55:18.699Z,11.90
2023-03-24T19:57:48.532Z,13.10
2023-03-24T20:00:19.438Z,10.50
2023-03-24T20:02:49.914Z,9.70
2023-03-24T20:05:19.368Z,9.40
2023-03-24T20:07:49.040Z,9.20
2023-03-24T20:10:20.862Z,9.60
2023-03-24T20:12:55.247Z,8.80
2023-03-24T20:15:33.208Z,9.20
2023-03-24T20:18:03.684Z,9.30
2023-03-24T20:20:33.867Z,9.50
2023-03-24T20:23:03.926Z,10.20
2023-03-24T20:25:34.199Z,11.60
2023-03-24T20:28:04.389Z,11.20
2023-03-24T20:30:34.474Z,10.90
2023-03-24T20:33:04.915Z,10.80
2023-03-24T20:35:36.500Z,11.00
2023-03-24T20:38:06.788Z,10.40
2023-03-24T20:40:36.886Z,10.70
2023-03-24T20:43:06.975Z,11.10
2023-03-24T20:45:37.364Z,10.70
2023-03-24T20:48:08.270Z,10.60
2023-03-24T20:50:37.613Z,17.30
2023-03-24T20:53:08.565Z,13.00
2023-03-24T20:55:38.316Z,12.80
2023-03-24T20:58:08.113Z,17.10
2023-03-24T21:00:41.335Z,23.90
2023-03-24T21:03:11.880Z,26.40
2023-03-24T21:05:41.610Z,30.50
2023-03-24T21:08:11.001Z,34.10
2023-03-24T21:10:40.503Z,39.10
2023-03-24T21:13:10.029Z,41.80
2023-03-24T21:15:47.574Z,43.90
2023-03-24T21:18:17.309Z,44.10
2023-03-24T21:20:55.013Z,45.00
2023-03-24T21:23:27.043Z,44.60
2023-03-24T21:25:56.180Z,42.10
2023-03-24T21:28:27.920Z,41.20
2023-03-24T21:30:57.934Z,43.20
2023-03-24T21:33:27.539Z,43.60
2023-03-24T21:35:57.824Z,42.30
2023-03-24T21:38:28.169Z,42.70
2023-03-24T21:41:00.256Z,43.20
2023-03-24T21:43:30.144Z,42.50
2023-03-24T21:46:14.343Z,40.00
2023-03-24T21:48:49.579Z,42.90
2023-03-24T21:51:23.487Z,50.80
2023-03-24T21:53:54.895Z,42.80
2023-03-24T21:56:24.161Z,39.60
2023-03-24T21:58:54.502Z,37.90
2023-03-24T22:01:24.647Z,38.30
2023-03-24T22:03:55.236Z,33.10
2023-03-24T22:06:24.796Z,32.90
2023-03-24T22:08:57.658Z,31.60
2023-03-24T22:11:27.224Z,29.50
2023-03-24T22:13:56.541Z,30.10
2023-03-24T22:16:25.666Z,29.10
2023-03-24T22:18:56.724Z,30.30
2023-03-24T22:21:26.938Z,28.00
2023-03-24T22:23:56.624Z,28.30
2023-03-24T22:26:26.245Z,27.50
2023-03-24T22:28:55.977Z,26.90
2023-03-24T22:31:25.795Z,26.20
2023-03-24T22:33:55.777Z,25.40
2023-03-24T22:36:25.618Z,26.10
2023-03-24T22:38:55.234Z,27.60
2023-03-24T22:41:24.594Z,31.10
2023-03-24T22:43:54.716Z,30.00
2023-03-24T22:46:25.608Z,30.50
2023-03-24T22:48:56.072Z,23.80
2023-03-24T22:51:25.476Z,25.10
2023-03-24T22:53:55.086Z,23.10
2023-03-24T22:56:24.929Z,24.30
2023-03-24T22:58:55.021Z,22.10
2023-03-24T23:01:26.289Z,23.80
2023-03-24T23:03:55.726Z,25.50
2023-03-24T23:06:26.950Z,26.50
2023-03-24T23:08:56.512Z,28.30
2023-03-24T23:11:26.133Z,26.90
2023-03-24T23:14:04.691Z,27.70
2023-03-24T23:19:04.821Z,25.90
2023-03-24T23:21:34.246Z,27.60
2023-03-24T23:24:03.749Z,28.50
2023-03-24T23:26:33.512Z,28.60
2023-03-24T23:29:02.939Z,29.80
2023-03-24T23:31:32.418Z,29.70
2023-03-24T23:34:04.369Z,31.60
2023-03-24T23:36:50.548Z,31.00
2023-03-24T23:39:20.509Z,31.00
2023-03-24T23:41:49.995Z,30.40
2023-03-24T23:44:19.694Z,29.00
2023-03-24T23:46:48.898Z,27.90
2023-03-24T23:49:18.491Z,27.00
2023-03-24T23:51:47.696Z,26.50
2023-03-24T23:54:17.104Z,27.20
2023-03-24T23:56:46.999Z,25.90
2023-03-24T23:59:16.337Z,26.90
